createdAt,value
2022-12-15T00:00:33.283Z,98901.25
2022-12-15T00:01:34.745Z,98897.63
2022-12-15T00:02:34.343Z,98879.56
2022-12-15T00:03:33.021Z,98899.34
2022-12-15T00:04:32.234Z,98896.59
2022-12-15T00:05:32.053Z,98877.06
2022-12-15T00:06:31.300Z,98893.94
2022-12-15T00:07:31.114Z,98895.72
2022-12-15T00:08:35.194Z,98894.03
2022-12-15T00:09:33.958Z,98898.50
2022-12-15T00:10:33.228Z,98900.19
2022-12-15T00:11:38.272Z,98900.19
2022-12-15T00:12:31.681Z,98887.41
2022-12-15T00:13:44.267Z,98889.09
2022-12-15T00:14:36.530Z,98898.66
2022-12-15T00:15:41.232Z,98885.97
2022-12-15T00:16:33.500Z,98898.97
2022-12-15T00:17:32.259Z,98894.56
2022-12-15T00:18:30.583Z,98904.25
2022-12-15T00:19:23.812Z,98900.75
2022-12-15T00:20:23.180Z,98901.78
2022-12-15T00:21:16.042Z,98898.97
2022-12-15T00:22:08.496Z,98886.16
2022-12-15T00:23:07.218Z,98898.97
2022-12-15T00:24:00.089Z,98877.63
2022-12-15T00:24:52.747Z,98889.28
2022-12-15T00:25:51.206Z,98902.16
2022-12-15T00:26:43.810Z,98891.91
2022-12-15T00:27:36.753Z,98892.75
2022-12-15T00:28:37.207Z,98898.66
2022-12-15T00:29:29.842Z,98898.53
2022-12-15T00:30:25.343Z,98900.06
2022-12-15T00:31:24.260Z,98894.28
2022-12-15T00:32:24.180Z,98900.25
2022-12-15T00:33:23.245Z,98901.97
2022-12-15T00:34:22.232Z,98900.19
2022-12-15T00:35:15.039Z,98892.50
2022-12-15T00:36:07.489Z,98905.28
2022-12-15T00:37:06.215Z,98906.91
2022-12-15T00:37:58.954Z,98894.78
2022-12-15T00:38:43.140Z,98908.41
2022-12-15T00:39:24.185Z,98911.00
2022-12-15T00:40:04.257Z,98892.88
2022-12-15T00:40:37.851Z,98904.63
2022-12-15T00:41:24.178Z,98902.94
2022-12-15T00:41:58.265Z,98904.75
2022-12-15T00:42:31.892Z,98904.63
2022-12-15T00:43:13.190Z,98905.50
2022-12-15T00:43:47.263Z,98887.56
2022-12-15T00:44:21.079Z,98902.56
2022-12-15T00:45:05.243Z,98909.56
2022-12-15T00:45:57.861Z,98906.81
2022-12-15T00:46:50.758Z,98911.28
2022-12-15T00:47:32.151Z,98910.16
2022-12-15T00:48:06.332Z,98911.19
2022-12-15T00:48:40.927Z,98918.19
2022-12-15T00:49:40.183Z,98900.09
2022-12-15T00:50:45.208Z,98907.69
2022-12-15T00:51:20.300Z,98916.56
2022-12-15T00:52:25.204Z,98915.81
2022-12-15T00:53:17.474Z,98921.88
2022-12-15T00:54:22.142Z,98920.00
2022-12-15T00:55:14.821Z,98922.06
2022-12-15T00:56:20.203Z,98922.25
2022-12-15T00:57:13.687Z,98924.16
2022-12-15T00:58:18.198Z,98914.66
2022-12-15T00:59:10.757Z,98914.75
2022-12-15T01:00:17.164Z,98914.66
2022-12-15T01:01:09.718Z,98914.75
2022-12-15T01:02:09.313Z,98929.44
2022-12-15T01:03:01.773Z,98933.69
2022-12-15T01:03:54.638Z,98917.78
2022-12-15T01:04:54.158Z,98918.84
2022-12-15T01:05:46.795Z,98920.53
2022-12-15T01:06:39.665Z,98926.03
2022-12-15T01:07:39.173Z,98915.63
2022-12-15T01:08:31.630Z,98921.50
2022-12-15T01:09:27.765Z,98927.81
2022-12-15T01:10:27.168Z,98920.06
2022-12-15T01:11:19.801Z,98920.91
2022-12-15T01:12:12.679Z,98930.56
2022-12-15T01:13:13.168Z,98927.91
2022-12-15T01:14:05.919Z,98921.97
2022-12-15T01:14:58.382Z,98929.63
2022-12-15T01:15:57.190Z,98922.41
2022-12-15T01:16:49.651Z,98930.72
2022-12-15T01:17:42.856Z,98928.44
2022-12-15T01:18:42.191Z,98920.69
2022-12-15T01:19:35.071Z,98924.47
2022-12-15T01:20:18.516Z,98916.50
2022-12-15T01:21:07.145Z,98923.53
2022-12-15T01:21:41.209Z,98913.13
2022-12-15T01:22:14.882Z,98911.78
2022-12-15T01:23:00.119Z,98917.72
2022-12-15T01:23:34.610Z,98920.69
2022-12-15T01:24:15.129Z,98925.78
2022-12-15T01:24:55.174Z,98918.03
2022-12-15T01:25:35.144Z,98926.88
2022-12-15T01:26:15.147Z,98917.44
2022-12-15T01:26:55.092Z,98929.72
2022-12-15T01:27:35.184Z,98925.19
2022-12-15T01:28:15.120Z,98920.03
2022-12-15T01:28:55.170Z,98924.97
2022-12-15T01:29:35.133Z,98926.50
2022-12-15T01:30:20.230Z,98927.69
2022-12-15T01:31:00.171Z,98928.97
2022-12-15T01:31:40.207Z,98927.84
2022-12-15T01:32:20.099Z,98916.75
2022-12-15T01:33:01.153Z,98928.41
2022-12-15T01:33:41.100Z,98931.63
2022-12-15T01:34:22.623Z,98938.94
2022-12-15T01:35:11.141Z,98934.31
2022-12-15T01:35:45.195Z,98935.25
2022-12-15T01:36:32.117Z,98932.13
2022-12-15T01:37:06.140Z,98941.19
2022-12-15T01:37:53.094Z,98943.94
2022-12-15T01:38:27.412Z,98939.00
2022-12-15T01:39:14.121Z,98936.41
2022-12-15T01:40:07.013Z,98920.03
2022-12-15T01:40:53.140Z,98926.94
2022-12-15T01:41:33.236Z,98938.56
2022-12-15T01:42:19.100Z,98923.81
2022-12-15T01:43:00.147Z,98936.84
2022-12-15T01:43:43.111Z,98937.72
2022-12-15T01:44:30.149Z,98939.16
2022-12-15T01:45:51.103Z,98938.75
2022-12-15T01:46:31.140Z,98944.47
2022-12-15T01:47:05.387Z,98942.28
2022-12-15T01:47:52.098Z,98927.50
2022-12-15T01:48:41.969Z,98946.22
2022-12-15T01:49:34.092Z,98931.88
2022-12-15T01:50:08.138Z,98936.56
2022-12-15T01:51:12.115Z,98940.06
2022-12-15T01:51:49.117Z,98941.94
2022-12-15T01:52:37.087Z,98944.84
2022-12-15T01:53:11.111Z,98938.03
2022-12-15T01:54:06.118Z,98941.34
2022-12-15T01:54:48.538Z,98940.22
2022-12-15T01:55:37.083Z,98939.47
2022-12-15T01:56:20.169Z,98927.44
2022-12-15T01:57:20.099Z,98933.06
2022-12-15T01:58:19.102Z,98937.31
2022-12-15T01:59:16.098Z,98944.59
2022-12-15T02:00:14.105Z,98935.97
2022-12-15T02:01:08.116Z,98942.63
2022-12-15T02:01:49.678Z,98954.50
2022-12-15T02:02:38.462Z,98947.00
2022-12-15T02:03:21.118Z,98951.16
2022-12-15T02:04:01.113Z,98954.47
2022-12-15T02:04:41.089Z,98952.53
2022-12-15T02:05:21.117Z,98955.41
2022-12-15T02:06:04.073Z,98943.13
2022-12-15T02:06:44.154Z,98953.47
2022-12-15T02:07:25.093Z,98947.25
2022-12-15T02:08:06.110Z,98953.22
2022-12-15T02:08:47.096Z,98942.47
2022-12-15T02:09:29.110Z,98958.34
2022-12-15T02:10:14.067Z,98960.03
2022-12-15T02:11:39.191Z,98955.94
2022-12-15T02:12:56.088Z,98956.97
2022-12-15T02:13:53.099Z,98966.53
2022-12-15T02:15:16.072Z,98947.41
2022-12-15T02:16:09.160Z,98968.69
2022-12-15T02:17:15.056Z,98953.81
2022-12-15T02:18:39.079Z,98961.41
2022-12-15T02:20:03.072Z,98973.53
2022-12-15T02:21:24.067Z,98970.00
2022-12-15T02:22:37.064Z,98972.44
2022-12-15T02:23:55.088Z,98970.84
2022-12-15T02:25:28.048Z,98977.22
2022-12-15T02:26:45.058Z,98987.28
2022-12-15T02:28:21.085Z,98984.47
2022-12-15T02:30:11.057Z,98989.41
2022-12-15T02:31:50.009Z,98990.38
2022-12-15T02:33:17.144Z,98979.19
2022-12-15T02:34:44.055Z,98982.31
2022-12-15T02:35:43.068Z,98981.28
2022-12-15T02:36:40.093Z,98986.94
2022-12-15T02:37:30.027Z,98992.41
2022-12-15T02:38:04.136Z,98994.72
2022-12-15T02:38:52.023Z,99003.44
2022-12-15T02:39:26.131Z,98994.72
2022-12-15T02:40:16.039Z,98990.03
2022-12-15T02:40:57.074Z,98987.59
2022-12-15T02:42:00.045Z,98999.34
2022-12-15T02:43:02.027Z,99000.91
2022-12-15T02:43:56.014Z,99000.59
2022-12-15T02:45:15.014Z,98998.19
2022-12-15T02:46:38.105Z,99000.53
2022-12-15T02:47:53.045Z,98997.25
2022-12-15T02:48:56.020Z,99010.66
2022-12-15T02:50:21.034Z,99003.00
2022-12-15T02:51:38.033Z,98994.28
2022-12-15T02:52:55.024Z,99004.94
2022-12-15T02:53:38.106Z,99004.94
2022-12-15T02:55:05.064Z,99003.38
2022-12-15T02:56:12.122Z,99010.13
2022-12-15T02:57:27.023Z,99006.34
2022-12-15T02:58:26.110Z,98998.69
2022-12-15T02:59:18.032Z,99007.25
2022-12-15T03:00:08.132Z,99004.69
2022-12-15T03:00:53.062Z,99008.72
2022-12-15T03:01:48.174Z,99009.34
2022-12-15T03:02:35.128Z,98991.09
2022-12-15T03:03:20.097Z,99001.03
2022-12-15T03:04:00.984Z,99007.06
2022-12-15T03:04:41.035Z,99005.88
2022-12-15T03:05:22.024Z,98998.47
2022-12-15T03:06:05.224Z,99004.03
2022-12-15T03:06:46.015Z,99004.81
2022-12-15T03:07:27.848Z,99004.66
2022-12-15T03:08:08.016Z,99013.81
2022-12-15T03:08:48.128Z,99014.38
2022-12-15T03:09:27.989Z,99015.47
2022-12-15T03:10:11.234Z,99016.66
2022-12-15T03:10:50.991Z,98993.88
2022-12-15T03:11:32.157Z,99019.06
2022-12-15T03:12:13.005Z,99004.84
2022-12-15T03:12:54.422Z,99014.78
2022-12-15T03:13:34.555Z,99011.38
2022-12-15T03:14:15.116Z,99019.22
2022-12-15T03:14:54.980Z,99017.25
2022-12-15T03:15:35.860Z,99019.81
2022-12-15T03:16:16.016Z,99016.31
2022-12-15T03:16:58.194Z,99014.91
2022-12-15T03:17:37.984Z,99021.13
2022-12-15T03:18:18.084Z,99019.59
2022-12-15T03:18:59.023Z,99020.53
2022-12-15T03:19:39.072Z,99013.44
2022-12-15T03:20:20.004Z,99026.44
2022-12-15T03:21:00.038Z,99020.97
2022-12-15T03:21:40.979Z,99031.53
2022-12-15T03:22:21.017Z,99037.53
2022-12-15T03:23:00.976Z,99037.13
2022-12-15T03:23:41.051Z,99011.94
2022-12-15T03:24:20.984Z,99031.94
2022-12-15T03:25:01.041Z,99018.69
2022-12-15T03:25:41.022Z,99025.00
2022-12-15T03:26:22.042Z,99027.66
2022-12-15T03:27:02.973Z,99038.75
2022-12-15T03:27:44.245Z,99030.22
2022-12-15T03:28:24.984Z,99045.59
2022-12-15T03:29:05.032Z,99041.16
2022-12-15T03:29:45.010Z,99019.91
2022-12-15T03:30:25.003Z,99051.59
2022-12-15T03:31:05.947Z,99037.06
2022-12-15T03:31:46.117Z,99050.81
2022-12-15T03:32:30.977Z,99041.50
2022-12-15T03:33:11.036Z,99037.81
2022-12-15T03:33:50.984Z,99047.41
2022-12-15T03:34:31.047Z,99051.50
2022-12-15T03:35:12.000Z,99047.63
2022-12-15T03:35:52.996Z,99056.69
2022-12-15T03:36:32.972Z,99042.25
2022-12-15T03:37:12.995Z,99051.38
2022-12-15T03:37:52.979Z,99039.03
2022-12-15T03:38:33.011Z,99047.13
2022-12-15T03:39:14.023Z,99054.06
2022-12-15T03:39:54.024Z,99048.44
2022-12-15T03:40:34.988Z,99055.06
2022-12-15T03:41:15.077Z,99043.19
2022-12-15T03:41:54.972Z,99050.81
2022-12-15T03:42:49.932Z,99049.25
2022-12-15T03:43:30.340Z,99051.44
2022-12-15T03:44:10.999Z,99057.09
2022-12-15T03:44:51.968Z,99058.78
2022-12-15T03:45:34.064Z,99067.03
2022-12-15T03:46:14.023Z,99061.84
2022-12-15T03:46:57.209Z,99066.59
2022-12-15T03:47:39.953Z,99044.94
2022-12-15T03:48:19.997Z,99063.97
2022-12-15T03:49:00.958Z,99073.78
2022-12-15T03:49:41.034Z,99066.06
2022-12-15T03:50:24.934Z,99072.03
2022-12-15T03:51:05.021Z,99079.50
2022-12-15T03:51:45.036Z,99074.41
2022-12-15T03:52:25.015Z,99067.06
2022-12-15T03:53:07.959Z,99074.53
2022-12-15T03:53:49.305Z,99063.78
2022-12-15T03:54:29.955Z,99069.16
2022-12-15T03:55:10.996Z,99075.91
2022-12-15T03:55:50.959Z,99069.69
2022-12-15T03:56:32.401Z,99077.81
2022-12-15T03:57:12.960Z,99084.50
2022-12-15T03:57:53.151Z,99069.97
2022-12-15T03:58:33.967Z,99089.78
2022-12-15T03:59:14.004Z,99063.25
2022-12-15T03:59:53.935Z,99082.47
2022-12-15T04:00:35.082Z,99080.16
2022-12-15T04:01:29.053Z,99065.84
2022-12-15T04:02:09.146Z,99083.25
2022-12-15T04:02:50.450Z,99061.88
2022-12-15T04:03:31.406Z,99081.06
2022-12-15T04:04:12.956Z,99063.03
2022-12-15T04:04:53.009Z,99084.97
2022-12-15T04:05:39.940Z,99078.34
2022-12-15T04:06:19.986Z,99083.22
2022-12-15T04:06:59.921Z,99080.88
2022-12-15T04:07:39.986Z,99084.88
2022-12-15T04:08:19.941Z,99072.84
2022-12-15T04:08:59.986Z,99077.19
2022-12-15T04:09:39.914Z,99090.81
2022-12-15T04:10:20.023Z,99085.13
2022-12-15T04:10:59.931Z,99080.53
2022-12-15T04:11:40.049Z,99084.81
2022-12-15T04:12:20.931Z,99093.50
2022-12-15T04:13:06.035Z,99091.56
2022-12-15T04:13:46.942Z,99083.72
2022-12-15T04:14:27.036Z,99093.97
2022-12-15T04:15:06.916Z,99094.06
2022-12-15T04:15:46.981Z,99094.94
2022-12-15T04:16:26.937Z,99095.84
2022-12-15T04:17:07.037Z,99100.34
2022-12-15T04:17:47.924Z,99093.38
2022-12-15T04:18:27.961Z,99099.09
2022-12-15T04:19:26.948Z,99101.06
2022-12-15T04:20:09.887Z,99094.75
2022-12-15T04:20:50.302Z,99099.59
2022-12-15T04:21:30.944Z,99099.28
2022-12-15T04:22:16.353Z,99105.97
2022-12-15T04:22:58.934Z,99090.72
2022-12-15T04:23:39.919Z,99101.28
2022-12-15T04:24:44.930Z,99110.63
2022-12-15T04:25:57.906Z,99104.88
2022-12-15T04:27:09.907Z,99110.00
2022-12-15T04:28:21.894Z,99112.50
2022-12-15T04:29:33.926Z,99109.06
2022-12-15T04:30:34.018Z,99106.19
2022-12-15T04:31:40.550Z,99099.81
2022-12-15T04:32:39.921Z,99113.25
2022-12-15T04:33:38.949Z,99120.44
2022-12-15T04:34:46.900Z,99116.53
2022-12-15T04:35:51.939Z,99119.94
2022-12-15T04:37:04.923Z,99120.97
2022-12-15T04:38:16.916Z,99137.53
2022-12-15T04:39:29.920Z,99137.22
2022-12-15T04:40:42.890Z,99139.47
2022-12-15T04:41:41.924Z,99134.56
2022-12-15T04:42:41.705Z,99137.28
2022-12-15T04:43:40.931Z,99146.25
2022-12-15T04:44:39.437Z,99119.56
2022-12-15T04:45:39.896Z,99141.09
2022-12-15T04:46:38.898Z,99144.63
2022-12-15T04:47:37.914Z,99141.72
2022-12-15T04:48:36.693Z,99125.50
2022-12-15T04:49:35.904Z,99142.34
2022-12-15T04:50:34.566Z,99140.78
2022-12-15T04:51:33.904Z,99144.47
2022-12-15T04:52:32.527Z,99153.34
2022-12-15T04:53:37.960Z,99142.44
2022-12-15T04:54:37.717Z,99151.22
2022-12-15T04:55:36.923Z,99164.44
2022-12-15T04:56:38.507Z,99152.38
2022-12-15T04:57:37.891Z,99164.06
2022-12-15T04:58:36.652Z,99165.84
2022-12-15T04:59:35.909Z,99165.06
2022-12-15T05:00:35.910Z,99160.22
2022-12-15T05:01:34.917Z,99167.78
2022-12-15T05:02:33.396Z,99149.19
2022-12-15T05:03:34.225Z,99162.66
2022-12-15T05:04:33.991Z,99162.50
2022-12-15T05:05:33.985Z,99150.13
2022-12-15T05:06:33.431Z,99171.13
2022-12-15T05:07:32.923Z,99176.25
2022-12-15T05:08:31.253Z,99168.16
2022-12-15T05:09:30.874Z,99185.13
2022-12-15T05:10:30.492Z,99168.63
2022-12-15T05:11:29.924Z,99181.88
2022-12-15T05:12:29.332Z,99173.94
2022-12-15T05:13:34.332Z,99150.88
2022-12-15T05:14:33.712Z,99169.72
2022-12-15T05:15:33.926Z,99178.53
2022-12-15T05:16:45.948Z,99175.97
2022-12-15T05:17:57.894Z,99161.56
2022-12-15T05:19:10.847Z,99177.34
2022-12-15T05:20:22.854Z,99160.41
2022-12-15T05:21:34.846Z,99177.13
2022-12-15T05:22:33.918Z,99168.03
2022-12-15T05:23:33.034Z,99170.69
2022-12-15T05:24:31.855Z,99166.91
2022-12-15T05:25:31.578Z,99176.59
2022-12-15T05:26:30.830Z,99182.47
2022-12-15T05:27:29.492Z,99189.91
2022-12-15T05:28:31.901Z,99195.19
2022-12-15T05:29:30.656Z,99188.19
2022-12-15T05:30:30.845Z,99198.31
2022-12-15T05:31:42.851Z,99199.47
2022-12-15T05:32:36.827Z,99188.09
2022-12-15T05:33:31.073Z,99184.78
2022-12-15T05:34:10.814Z,99192.25
2022-12-15T05:34:50.850Z,99207.31
2022-12-15T05:35:31.842Z,99202.16
2022-12-15T05:36:12.886Z,99187.84
2022-12-15T05:36:52.826Z,99190.34
2022-12-15T05:37:32.888Z,99190.34
2022-12-15T05:38:12.828Z,99188.91
2022-12-15T05:38:57.853Z,99188.78
2022-12-15T05:39:32.934Z,99206.38
2022-12-15T05:40:19.812Z,99210.91
2022-12-15T05:40:53.934Z,99209.75
2022-12-15T05:41:40.833Z,99214.19
2022-12-15T05:42:14.940Z,99215.03
2022-12-15T05:43:05.835Z,99218.47
2022-12-15T05:43:39.872Z,99207.31
2022-12-15T05:44:20.862Z,99205.66
2022-12-15T05:45:00.857Z,99219.75
2022-12-15T05:45:40.810Z,99223.41
2022-12-15T05:46:20.972Z,99219.19
2022-12-15T05:47:00.802Z,99229.31
2022-12-15T05:47:40.827Z,99220.16
2022-12-15T05:48:20.815Z,99232.09
2022-12-15T05:49:00.850Z,99228.00
2022-12-15T05:49:41.836Z,99227.78
2022-12-15T05:50:21.851Z,99225.72
2022-12-15T05:51:01.807Z,99217.72
2022-12-15T05:51:58.831Z,99223.31
2022-12-15T05:52:52.798Z,99231.00
2022-12-15T05:53:46.801Z,99239.22
2022-12-15T05:54:40.824Z,99220.47
2022-12-15T05:55:20.830Z,99246.47
2022-12-15T05:56:10.939Z,99233.41
2022-12-15T05:56:51.831Z,99247.81
2022-12-15T05:57:31.868Z,99239.75
2022-12-15T05:58:12.793Z,99237.03
2022-12-15T05:58:52.836Z,99253.19
2022-12-15T05:59:32.788Z,99242.47
2022-12-15T06:00:13.812Z,99256.19
2022-12-15T06:00:48.067Z,99259.72
2022-12-15T06:01:35.858Z,99252.03
2022-12-15T06:02:09.975Z,99251.75
2022-12-15T06:02:56.866Z,99259.47
2022-12-15T06:03:31.720Z,99259.75
2022-12-15T06:04:19.851Z,99257.84
2022-12-15T06:04:53.940Z,99260.19
2022-12-15T06:05:33.803Z,99258.03
2022-12-15T06:06:15.867Z,99262.09
2022-12-15T06:06:55.785Z,99250.38
2022-12-15T06:07:37.319Z,99264.63
2022-12-15T06:08:16.793Z,99271.31
2022-12-15T06:08:56.870Z,99242.03
2022-12-15T06:09:36.796Z,99273.53
2022-12-15T06:10:16.841Z,99270.50
2022-12-15T06:11:03.803Z,99274.19
2022-12-15T06:11:43.813Z,99278.09
2022-12-15T06:12:24.783Z,99271.63
2022-12-15T06:13:05.275Z,99280.47
2022-12-15T06:13:44.792Z,99266.03
2022-12-15T06:14:24.828Z,99253.06
2022-12-15T06:15:05.791Z,99265.81
2022-12-15T06:15:45.905Z,99266.47
2022-12-15T06:16:27.837Z,99284.31
2022-12-15T06:17:08.857Z,99290.31
2022-12-15T06:17:49.735Z,99288.47
2022-12-15T06:18:30.873Z,99286.34
2022-12-15T06:19:10.762Z,99281.63
2022-12-15T06:19:50.931Z,99287.69
2022-12-15T06:20:30.885Z,99284.91
2022-12-15T06:21:23.829Z,99295.03
2022-12-15T06:22:04.788Z,99290.03
2022-12-15T06:22:49.730Z,99300.13
2022-12-15T06:23:30.229Z,99295.63
2022-12-15T06:24:12.841Z,99299.69
2022-12-15T06:24:53.766Z,99294.56
2022-12-15T06:25:33.807Z,99300.91
2022-12-15T06:26:27.761Z,99308.19
2022-12-15T06:27:15.814Z,99307.59
2022-12-15T06:28:09.793Z,99296.63
2022-12-15T06:29:04.776Z,99299.41
2022-12-15T06:29:58.769Z,99304.19
2022-12-15T06:30:52.783Z,99305.97
2022-12-15T06:31:47.866Z,99311.56
2022-12-15T06:32:34.769Z,99304.00
2022-12-15T06:33:08.819Z,99302.47
2022-12-15T06:34:02.456Z,99309.69
2022-12-15T06:34:36.996Z,99311.69
2022-12-15T06:35:23.751Z,99310.50
2022-12-15T06:35:59.846Z,99303.34
2022-12-15T06:36:47.758Z,99311.34
2022-12-15T06:37:21.795Z,99312.31
2022-12-15T06:38:01.776Z,99303.81
2022-12-15T06:38:45.856Z,99317.19
2022-12-15T06:39:29.761Z,99313.75
2022-12-15T06:40:09.813Z,99321.97
2022-12-15T06:40:49.767Z,99317.44
2022-12-15T06:41:30.380Z,99312.97
2022-12-15T06:42:10.764Z,99312.50
2022-12-15T06:42:50.833Z,99315.06
2022-12-15T06:44:33.759Z,99311.19
2022-12-15T06:45:08.245Z,99296.69
2022-12-15T06:45:56.744Z,99318.91
2022-12-15T06:46:31.986Z,99322.53
2022-12-15T06:47:18.753Z,99314.31
2022-12-15T06:47:56.583Z,99326.31
2022-12-15T06:48:51.738Z,99319.97
2022-12-15T06:49:25.807Z,99318.97
2022-12-15T06:50:05.757Z,99336.31
2022-12-15T06:50:45.801Z,99335.25
2022-12-15T06:51:30.736Z,99333.06
2022-12-15T06:52:10.873Z,99334.75
2022-12-15T06:52:51.737Z,99338.75
2022-12-15T06:53:32.623Z,99328.34
2022-12-15T06:54:13.751Z,99332.78
2022-12-15T06:54:54.297Z,99343.06
2022-12-15T06:55:33.805Z,99341.59
2022-12-15T06:56:30.604Z,99340.41
2022-12-15T06:57:12.727Z,99347.63
2022-12-15T06:57:55.801Z,99350.75
2022-12-15T06:58:35.728Z,99352.13
2022-12-15T06:59:17.762Z,99358.44
2022-12-15T06:59:57.735Z,99354.50
2022-12-15T07:00:44.767Z,99352.34
2022-12-15T07:01:39.862Z,99355.78
2022-12-15T07:02:36.907Z,99343.19
2022-12-15T07:03:33.334Z,99345.25
2022-12-15T07:04:27.830Z,99361.34
2022-12-15T07:05:21.721Z,99349.25
2022-12-15T07:06:14.752Z,99354.50
2022-12-15T07:06:49.314Z,99354.50
2022-12-15T07:07:36.740Z,99359.78
2022-12-15T07:08:11.085Z,99358.00
2022-12-15T07:09:00.749Z,99354.63
2022-12-15T07:09:34.760Z,99356.78
2022-12-15T07:10:21.717Z,99357.78
2022-12-15T07:10:55.753Z,99359.78
2022-12-15T07:11:36.733Z,99345.94
2022-12-15T07:12:19.796Z,99371.63
2022-12-15T07:13:02.719Z,99359.06
2022-12-15T07:13:42.805Z,99359.47
2022-12-15T07:14:22.725Z,99361.69
2022-12-15T07:15:03.047Z,99366.03
2022-12-15T07:15:43.787Z,99370.44
2022-12-15T07:16:24.776Z,99364.00
2022-12-15T07:17:05.718Z,99375.28
2022-12-15T07:17:45.748Z,99367.44
2022-12-15T07:18:25.708Z,99373.75
2022-12-15T07:19:05.791Z,99352.59
2022-12-15T07:19:45.708Z,99385.38
2022-12-15T07:20:28.936Z,99391.03
2022-12-15T07:21:12.718Z,99386.44
2022-12-15T07:21:52.866Z,99389.47
2022-12-15T07:22:34.721Z,99391.53
2022-12-15T07:23:14.747Z,99395.81
2022-12-15T07:23:56.593Z,99391.91
2022-12-15T07:24:37.059Z,99392.34
2022-12-15T07:25:17.697Z,99394.50
2022-12-15T07:25:57.887Z,99390.75
2022-12-15T07:26:38.707Z,99388.03
2022-12-15T07:27:18.919Z,99394.91
2022-12-15T07:27:59.714Z,99399.91
2022-12-15T07:28:40.770Z,99398.59
2022-12-15T07:29:23.529Z,99393.22
2022-12-15T07:30:03.749Z,99395.88
2022-12-15T07:30:44.699Z,99402.34
2022-12-15T07:31:24.900Z,99383.00
2022-12-15T07:32:06.695Z,99396.72
2022-12-15T07:32:50.414Z,99393.22
2022-12-15T07:33:33.101Z,99393.56
2022-12-15T07:34:13.727Z,99392.75
2022-12-15T07:34:54.694Z,99394.63
2022-12-15T07:35:34.735Z,99401.22
2022-12-15T07:36:15.690Z,99398.97
2022-12-15T07:36:55.797Z,99410.59
2022-12-15T07:37:36.685Z,99399.38
2022-12-15T07:38:16.895Z,99412.06
2022-12-15T07:38:57.714Z,99402.63
2022-12-15T07:39:37.817Z,99393.59
2022-12-15T07:40:18.688Z,99409.44
2022-12-15T07:40:58.727Z,99405.31
2022-12-15T07:41:38.676Z,99413.41
2022-12-15T07:42:19.463Z,99401.78
2022-12-15T07:42:59.681Z,99406.78
2022-12-15T07:43:39.822Z,99399.81
2022-12-15T07:44:21.687Z,99398.41
2022-12-15T07:45:01.707Z,99407.56
2022-12-15T07:45:44.484Z,99424.28
2022-12-15T07:46:29.105Z,99407.63
2022-12-15T07:47:09.839Z,99415.94
2022-12-15T07:47:50.220Z,99413.34
2022-12-15T07:48:31.680Z,99412.66
2022-12-15T07:49:11.768Z,99420.78
2022-12-15T07:49:52.698Z,99420.91
2022-12-15T07:50:32.707Z,99411.41
2022-12-15T07:51:19.248Z,99416.47
2022-12-15T07:51:59.731Z,99415.59
2022-12-15T07:52:39.683Z,99411.13
2022-12-15T07:53:19.721Z,99419.84
2022-12-15T07:53:59.689Z,99406.63
2022-12-15T07:54:39.724Z,99407.41
2022-12-15T07:55:37.246Z,99418.91
2022-12-15T07:56:19.728Z,99398.63
2022-12-15T07:56:59.670Z,99426.16
2022-12-15T07:57:39.700Z,99412.44
2022-12-15T07:58:19.678Z,99429.66
2022-12-15T07:58:59.721Z,99426.00
2022-12-15T07:59:43.662Z,99433.31
2022-12-15T08:00:30.720Z,99421.06
2022-12-15T08:01:27.933Z,99444.66
2022-12-15T08:02:24.825Z,99430.38
2022-12-15T08:03:18.773Z,99445.69
2022-12-15T08:04:12.647Z,99435.81
2022-12-15T08:05:06.664Z,99421.97
2022-12-15T08:05:56.571Z,99438.69
2022-12-15T08:06:32.805Z,99444.84
2022-12-15T08:07:19.654Z,99445.03
2022-12-15T08:07:53.690Z,99444.13
2022-12-15T08:08:40.675Z,99440.81
2022-12-15T08:09:14.693Z,99427.66
2022-12-15T08:10:01.663Z,99432.69
2022-12-15T08:10:35.692Z,99430.88
2022-12-15T08:11:19.675Z,99441.38
2022-12-15T08:11:59.691Z,99442.31
2022-12-15T08:12:39.660Z,99448.53
2022-12-15T08:13:52.418Z,99452.25
2022-12-15T08:14:22.189Z,99446.81
2022-12-15T08:15:02.775Z,99451.47
2022-12-15T08:15:44.637Z,99434.06
2022-12-15T08:16:32.676Z,99447.06
2022-12-15T08:17:26.640Z,99434.66
2022-12-15T08:18:21.663Z,99435.09
2022-12-15T08:19:17.651Z,99446.25
2022-12-15T08:20:11.669Z,99441.66
2022-12-15T08:21:05.640Z,99441.88
2022-12-15T08:21:53.656Z,99443.53
2022-12-15T08:22:27.678Z,99445.97
2022-12-15T08:23:14.658Z,99437.50
2022-12-15T08:23:49.409Z,99444.13
2022-12-15T08:24:36.647Z,99440.41
2022-12-15T08:25:11.715Z,99446.13
2022-12-15T08:25:58.653Z,99433.63
2022-12-15T08:26:32.738Z,99441.13
2022-12-15T08:27:12.661Z,99447.38
2022-12-15T08:27:52.952Z,99437.03
2022-12-15T08:28:32.634Z,99447.22
2022-12-15T08:29:50.260Z,99435.84
2022-12-15T08:30:16.615Z,99445.34
2022-12-15T08:30:56.676Z,99443.22
2022-12-15T08:31:39.716Z,99455.31
2022-12-15T08:32:26.672Z,99438.78
2022-12-15T08:33:21.654Z,99456.00
2022-12-15T08:34:17.624Z,99459.28
2022-12-15T08:35:31.833Z,99449.28
2022-12-15T08:36:28.602Z,99465.44
2022-12-15T08:37:22.644Z,99449.50
2022-12-15T08:38:05.614Z,99467.03
2022-12-15T08:38:49.087Z,99463.25
2022-12-15T08:39:29.622Z,99466.66
2022-12-15T08:40:09.678Z,99465.44
2022-12-15T08:40:49.613Z,99463.44
2022-12-15T08:41:35.659Z,99467.66
2022-12-15T08:42:15.611Z,99472.03
2022-12-15T08:42:55.657Z,99470.44
2022-12-15T08:43:35.611Z,99471.88
2022-12-15T08:44:16.931Z,99476.09
2022-12-15T08:44:56.627Z,99476.66
2022-12-15T08:45:36.672Z,99475.31
2022-12-15T08:46:17.677Z,99476.59
2022-12-15T08:46:57.641Z,99474.16
2022-12-15T08:47:37.612Z,99488.13
2022-12-15T08:48:17.666Z,99488.59
2022-12-15T08:48:59.641Z,99475.94
2022-12-15T08:49:40.008Z,99478.31
2022-12-15T08:50:19.640Z,99492.47
2022-12-15T08:51:03.733Z,99490.03
2022-12-15T08:51:43.629Z,99488.84
2022-12-15T08:52:23.679Z,99486.03
2022-12-15T08:53:29.648Z,99488.03
2022-12-15T08:54:12.640Z,99467.22
2022-12-15T08:55:06.602Z,99482.53
2022-12-15T08:56:00.586Z,99495.06
2022-12-15T08:56:54.620Z,99493.69
2022-12-15T08:57:48.602Z,99495.84
2022-12-15T08:58:42.650Z,99486.47
2022-12-15T08:59:29.624Z,99495.97
2022-12-15T09:00:04.874Z,99476.03
2022-12-15T09:00:52.722Z,99492.78
2022-12-15T09:01:28.824Z,99499.34
2022-12-15T09:03:19.608Z,99475.66
2022-12-15T09:04:13.662Z,99496.50
2022-12-15T09:04:54.683Z,99492.41
2022-12-15T09:05:34.631Z,99492.63
2022-12-15T09:06:31.616Z,99489.13
2022-12-15T09:07:11.627Z,99473.38
2022-12-15T09:07:51.576Z,99501.13
2022-12-15T09:08:31.752Z,99492.56
2022-12-15T09:09:14.578Z,99498.50
2022-12-15T09:10:01.638Z,99494.78
2022-12-15T09:10:55.596Z,99494.34
2022-12-15T09:11:49.601Z,99499.63
2022-12-15T09:12:43.582Z,99503.84
2022-12-15T09:13:37.589Z,99507.28
2022-12-15T09:14:32.581Z,99508.88
2022-12-15T09:15:19.631Z,99508.28
2022-12-15T09:16:09.453Z,99511.13
2022-12-15T09:16:56.695Z,99512.50
2022-12-15T09:17:31.035Z,99507.78
2022-12-15T09:18:18.576Z,99499.06
2022-12-15T09:18:55.809Z,99500.59
2022-12-15T09:19:42.572Z,99508.13
2022-12-15T09:20:17.956Z,99512.56
2022-12-15T09:20:59.576Z,99497.97
2022-12-15T09:21:40.088Z,99507.16
2022-12-15T09:22:19.566Z,99498.59
2022-12-15T09:22:59.670Z,99496.66
2022-12-15T09:23:41.602Z,99515.13
2022-12-15T09:24:32.174Z,99499.59